createdAt,value
2024-05-09T00:00:36.114Z,102.67
2024-05-09T00:01:10.259Z,103.00
2024-05-09T00:01:41.098Z,103.33
2024-05-09T00:02:11.992Z,104.33
2024-05-09T00:02:43.160Z,105.00
2024-05-09T00:03:14.096Z,105.00
2024-05-09T00:03:45.900Z,105.00
2024-05-09T00:04:16.756Z,105.00
2024-05-09T00:04:47.757Z,104.33
2024-05-09T00:05:18.735Z,104.00
2024-05-09T00:05:49.552Z,104.00
2024-05-09T00:06:20.345Z,104.00
2024-05-09T00:06:51.094Z,104.00
2024-05-09T00:07:21.923Z,104.00
2024-05-09T00:07:52.700Z,103.33
2024-05-09T00:08:23.705Z,103.00
2024-05-09T00:08:54.586Z,103.00
2024-05-09T00:09:25.395Z,102.67
2024-05-09T00:09:56.195Z,101.33
2024-05-09T00:10:35.061Z,101.00
2024-05-09T00:11:08.560Z,100.00
2024-05-09T00:11:39.543Z,99.00
2024-05-09T00:12:10.467Z,96.00
2024-05-09T00:12:41.312Z,93.00
2024-05-09T00:13:12.119Z,90.00
2024-05-09T00:13:42.968Z,86.33
2024-05-09T00:14:13.868Z,84.00
2024-05-09T00:14:44.682Z,81.00
2024-05-09T00:15:15.449Z,78.33
2024-05-09T00:15:46.206Z,77.33
2024-05-09T00:16:16.995Z,79.67
2024-05-09T00:16:48.628Z,80.67
2024-05-09T00:17:19.588Z,81.00
2024-05-09T00:17:50.567Z,82.00
2024-05-09T00:18:21.787Z,83.00
2024-05-09T00:18:55.451Z,83.00
2024-05-09T00:19:26.624Z,83.00
2024-05-09T00:19:57.620Z,81.67
2024-05-09T00:20:36.449Z,79.67
2024-05-09T00:21:10.589Z,76.67
2024-05-09T00:21:44.220Z,76.00
2024-05-09T00:22:15.071Z,75.00
2024-05-09T00:22:45.907Z,75.00
2024-05-09T00:23:16.840Z,74.67
2024-05-09T00:23:47.662Z,74.00
2024-05-09T00:24:18.475Z,73.33
2024-05-09T00:24:49.368Z,72.33
2024-05-09T00:25:20.115Z,71.33
2024-05-09T00:25:50.999Z,69.67
2024-05-09T00:26:23.288Z,68.67
2024-05-09T00:26:54.089Z,68.00
2024-05-09T00:27:24.916Z,66.67
2024-05-09T00:27:55.746Z,65.67
2024-05-09T00:28:26.535Z,65.00
2024-05-09T00:28:57.456Z,65.00
2024-05-09T00:29:28.332Z,65.00
2024-05-09T00:29:59.284Z,64.67
2024-05-09T00:30:34.218Z,63.67
2024-05-09T00:31:07.202Z,64.00
2024-05-09T00:31:38.009Z,64.33
2024-05-09T00:32:08.936Z,65.00
2024-05-09T00:32:39.848Z,65.00
2024-05-09T00:33:11.659Z,65.00
2024-05-09T00:33:42.944Z,65.00
2024-05-09T00:34:14.096Z,65.00
2024-05-09T00:34:45.086Z,65.00
2024-05-09T00:35:16.152Z,65.33
2024-05-09T00:35:46.970Z,66.00
2024-05-09T00:36:17.812Z,66.00
2024-05-09T00:36:48.619Z,66.00
2024-05-09T00:37:20.827Z,66.00
2024-05-09T00:37:51.788Z,66.00
2024-05-09T00:38:22.718Z,66.00
2024-05-09T00:38:53.559Z,65.00
2024-05-09T00:39:24.530Z,65.00
2024-05-09T00:39:55.328Z,65.00
2024-05-09T00:40:35.713Z,65.00
2024-05-09T00:41:10.643Z,65.00
2024-05-09T00:41:41.514Z,65.00
2024-05-09T00:42:12.284Z,64.33
2024-05-09T00:42:45.755Z,64.00
2024-05-09T00:43:16.655Z,63.67
2024-05-09T00:43:47.458Z,63.00
2024-05-09T00:44:18.328Z,63.00
2024-05-09T00:44:49.123Z,62.67
2024-05-09T00:45:19.935Z,61.67
2024-05-09T00:45:50.870Z,60.67
2024-05-09T00:46:21.764Z,59.67
2024-05-09T00:46:54.233Z,58.67
2024-05-09T00:47:25.388Z,58.00
2024-05-09T00:47:58.321Z,57.67
2024-05-09T00:48:30.345Z,56.67
2024-05-09T00:49:01.616Z,55.67
2024-05-09T00:49:32.967Z,54.33
2024-05-09T00:50:05.595Z,52.67
2024-05-09T00:50:41.810Z,52.00
2024-05-09T00:51:13.114Z,52.00
2024-05-09T00:51:44.661Z,53.00
2024-05-09T00:52:15.699Z,52.67
2024-05-09T00:52:47.882Z,52.67
2024-05-09T00:53:19.051Z,52.00
2024-05-09T00:53:50.059Z,52.00
2024-05-09T00:54:22.187Z,52.00
2024-05-09T00:54:55.406Z,52.00
2024-05-09T00:55:27.009Z,52.67
2024-05-09T00:55:58.334Z,53.00
2024-05-09T00:56:29.296Z,53.00
2024-05-09T00:57:03.237Z,52.67
2024-05-09T00:57:34.068Z,52.00
2024-05-09T00:58:09.004Z,52.00
2024-05-09T00:58:40.549Z,52.00
2024-05-09T00:59:11.828Z,51.33
2024-05-09T00:59:42.897Z,51.00
2024-05-09T01:00:22.627Z,50.00
2024-05-09T01:01:02.253Z,50.00
2024-05-09T01:01:34.195Z,50.00
2024-05-09T01:02:05.851Z,50.00
2024-05-09T01:02:38.184Z,50.00
2024-05-09T01:03:11.284Z,49.67
2024-05-09T01:03:46.476Z,49.00
2024-05-09T01:04:18.164Z,48.67
2024-05-09T01:04:49.479Z,48.00
2024-05-09T01:05:20.486Z,47.67
2024-05-09T01:05:51.411Z,47.00
2024-05-09T01:06:22.254Z,47.00
2024-05-09T01:06:53.140Z,46.00
2024-05-09T01:07:24.195Z,46.00
2024-05-09T01:07:54.983Z,46.00
2024-05-09T01:08:26.074Z,46.67
2024-05-09T01:08:56.912Z,47.00
2024-05-09T01:09:27.713Z,47.00
2024-05-09T01:09:58.517Z,47.00
2024-05-09T01:10:34.436Z,47.00
2024-05-09T01:11:06.828Z,47.00
2024-05-09T01:11:39.449Z,47.00
2024-05-09T01:12:10.689Z,47.00
2024-05-09T01:12:41.507Z,47.00
2024-05-09T01:13:12.514Z,47.00
2024-05-09T01:13:46.329Z,47.00
2024-05-09T01:14:17.245Z,47.00
2024-05-09T01:14:48.060Z,47.67
2024-05-09T01:15:18.876Z,48.00
2024-05-09T01:15:51.886Z,48.00
2024-05-09T01:16:22.653Z,48.00
2024-05-09T01:16:53.735Z,48.00
2024-05-09T01:17:25.220Z,48.00
2024-05-09T01:17:57.974Z,47.00
2024-05-09T01:18:29.292Z,47.00
2024-05-09T01:19:03.384Z,47.00
2024-05-09T01:19:35.480Z,47.00
2024-05-09T01:20:10.644Z,47.00
2024-05-09T01:20:45.305Z,47.33
2024-05-09T01:21:16.562Z,48.00
2024-05-09T01:21:47.383Z,49.00
2024-05-09T01:22:18.322Z,49.67
2024-05-09T01:22:51.595Z,50.00
2024-05-09T01:23:22.599Z,50.00
2024-05-09T01:23:53.436Z,50.67
2024-05-09T01:24:24.288Z,51.00
2024-05-09T01:24:55.055Z,50.33
2024-05-09T01:25:25.867Z,50.00
2024-05-09T01:25:56.663Z,49.67
2024-05-09T01:26:27.541Z,49.00
2024-05-09T01:26:58.707Z,48.67
2024-05-09T01:27:30.075Z,48.00
2024-05-09T01:28:01.250Z,47.67
2024-05-09T01:28:32.082Z,46.67
2024-05-09T01:29:03.047Z,46.00
2024-05-09T01:29:33.889Z,46.00
2024-05-09T01:30:09.176Z,46.00
2024-05-09T01:30:40.393Z,46.00
2024-05-09T01:31:14.744Z,46.00
2024-05-09T01:31:47.133Z,45.00
2024-05-09T01:32:18.094Z,44.33
2024-05-09T01:32:49.297Z,44.00
2024-05-09T01:33:20.552Z,43.00
2024-05-09T01:33:51.647Z,43.00
2024-05-09T01:34:22.652Z,42.00
2024-05-09T01:34:53.680Z,41.33
2024-05-09T01:35:24.568Z,39.67
2024-05-09T01:35:55.512Z,39.00
2024-05-09T01:36:26.326Z,38.67
2024-05-09T01:36:57.203Z,38.00
2024-05-09T01:37:28.003Z,37.33
2024-05-09T01:37:58.896Z,37.00
2024-05-09T01:38:29.771Z,36.00
2024-05-09T01:39:00.621Z,36.00
2024-05-09T01:39:31.432Z,36.00
2024-05-09T01:40:02.818Z,35.00
2024-05-09T01:40:38.445Z,34.67
2024-05-09T01:41:10.951Z,32.67
2024-05-09T01:41:41.757Z,30.67
2024-05-09T01:42:12.620Z,29.33
2024-05-09T01:42:43.468Z,28.33
2024-05-09T01:43:17.682Z,27.33
2024-05-09T01:43:48.502Z,27.00
2024-05-09T01:44:19.577Z,26.33
2024-05-09T01:44:50.339Z,26.00
2024-05-09T01:45:21.118Z,25.67
2024-05-09T01:45:51.972Z,25.00
2024-05-09T01:46:22.787Z,25.00
2024-05-09T01:46:53.576Z,25.00
2024-05-09T01:47:24.474Z,26.00
2024-05-09T01:47:55.592Z,26.00
2024-05-09T01:48:26.779Z,26.00
2024-05-09T01:48:58.048Z,26.33
2024-05-09T01:49:34.061Z,27.00
2024-05-09T01:50:08.932Z,27.00
2024-05-09T01:50:43.127Z,27.00
2024-05-09T01:51:14.603Z,27.00
2024-05-09T01:51:45.498Z,26.67
2024-05-09T01:52:16.261Z,26.00
2024-05-09T01:52:47.198Z,26.00
2024-05-09T01:53:18.198Z,26.00
2024-05-09T01:53:48.997Z,25.00
2024-05-09T01:54:19.764Z,25.00
2024-05-09T01:54:50.699Z,24.67
2024-05-09T01:55:21.548Z,24.00
2024-05-09T01:55:52.409Z,24.33
2024-05-09T01:56:23.236Z,25.00
2024-05-09T01:56:54.047Z,25.00
2024-05-09T01:57:24.813Z,25.00
2024-05-09T01:57:55.656Z,25.00
2024-05-09T01:58:27.287Z,25.00
2024-05-09T01:58:58.126Z,25.00
2024-05-09T01:59:29.123Z,25.00
2024-05-09T01:59:59.956Z,25.00
2024-05-09T02:00:38.316Z,25.00
2024-05-09T02:01:12.181Z,25.00
2024-05-09T02:01:56.187Z,25.00
2024-05-09T02:02:28.625Z,25.00
2024-05-09T02:02:59.661Z,25.00
2024-05-09T02:03:30.688Z,24.00
2024-05-09T02:04:02.096Z,24.00
2024-05-09T02:04:33.266Z,24.00
2024-05-09T02:05:04.777Z,24.00
2024-05-09T02:05:35.825Z,23.33
2024-05-09T02:06:06.924Z,23.00
2024-05-09T02:06:41.233Z,23.00
2024-05-09T02:07:12.099Z,23.00
2024-05-09T02:07:42.960Z,23.00
2024-05-09T02:08:16.051Z,23.00
2024-05-09T02:08:46.965Z,23.00
2024-05-09T02:09:17.779Z,23.00
2024-05-09T02:09:51.972Z,23.00
2024-05-09T02:10:26.479Z,24.00
2024-05-09T02:11:03.277Z,24.00
2024-05-09T02:11:43.291Z,24.00
2024-05-09T02:12:14.421Z,23.00
2024-05-09T02:12:45.349Z,23.00
2024-05-09T02:13:16.656Z,23.00
2024-05-09T02:13:47.702Z,22.67
2024-05-09T02:14:21.533Z,22.00
2024-05-09T02:14:52.345Z,22.00
2024-05-09T02:15:23.109Z,22.00
2024-05-09T02:15:55.225Z,22.00
2024-05-09T02:16:25.974Z,22.00
2024-05-09T02:16:57.253Z,22.00
2024-05-09T02:17:28.324Z,22.00
2024-05-09T02:17:59.451Z,22.00
2024-05-09T02:18:30.618Z,22.00
2024-05-09T02:19:01.672Z,22.00
2024-05-09T02:19:33.065Z,22.00
2024-05-09T02:20:06.031Z,22.00
2024-05-09T02:20:39.804Z,22.00
2024-05-09T02:21:10.836Z,22.00
2024-05-09T02:21:41.772Z,22.00
2024-05-09T02:22:12.577Z,22.00
2024-05-09T02:22:43.425Z,22.00
2024-05-09T02:23:14.386Z,22.00
2024-05-09T02:23:45.247Z,22.00
2024-05-09T02:24:16.069Z,22.00
2024-05-09T02:24:46.897Z,22.00
2024-05-09T02:25:20.820Z,22.00
2024-05-09T02:25:51.607Z,23.00
2024-05-09T02:26:22.656Z,23.00
2024-05-09T02:26:53.500Z,23.67
2024-05-09T02:27:24.275Z,24.00
2024-05-09T02:27:55.097Z,24.00
2024-05-09T02:28:25.887Z,25.00
2024-05-09T02:28:56.800Z,25.00
2024-05-09T02:29:27.729Z,25.00
2024-05-09T02:29:58.605Z,25.00
2024-05-09T02:30:36.436Z,25.00
2024-05-09T02:31:12.231Z,25.00
2024-05-09T02:31:43.513Z,25.00
2024-05-09T02:32:14.509Z,25.00
2024-05-09T02:32:45.612Z,25.00
2024-05-09T02:33:16.667Z,25.00
2024-05-09T02:33:47.922Z,25.00
2024-05-09T02:34:19.120Z,25.00
2024-05-09T02:34:50.042Z,25.00
2024-05-09T02:35:20.879Z,25.00
2024-05-09T02:35:51.697Z,25.00
2024-05-09T02:36:22.541Z,25.00
2024-05-09T02:36:56.007Z,25.00
2024-05-09T02:37:26.821Z,25.00
2024-05-09T02:37:57.647Z,25.00
2024-05-09T02:38:28.554Z,25.00
2024-05-09T02:38:59.340Z,25.00
2024-05-09T02:39:30.089Z,24.33
2024-05-09T02:40:00.905Z,24.00
2024-05-09T02:40:37.020Z,24.00
2024-05-09T02:41:09.869Z,24.00
2024-05-09T02:41:40.680Z,24.00
2024-05-09T02:42:11.503Z,24.00
2024-05-09T02:42:42.470Z,25.00
2024-05-09T02:43:13.423Z,25.00
2024-05-09T02:43:44.223Z,25.00
2024-05-09T02:44:15.078Z,25.00
2024-05-09T02:44:45.957Z,25.00
2024-05-09T02:45:16.730Z,25.00
2024-05-09T02:45:47.675Z,25.67
2024-05-09T02:46:18.440Z,26.00
2024-05-09T02:46:49.308Z,27.00
2024-05-09T02:47:20.346Z,27.67
2024-05-09T02:47:51.324Z,28.00
2024-05-09T02:48:22.515Z,28.67
2024-05-09T02:48:53.483Z,30.67
2024-05-09T02:49:24.586Z,32.00
2024-05-09T02:49:55.597Z,32.00
2024-05-09T02:50:33.944Z,32.00
2024-05-09T02:51:09.250Z,32.00
2024-05-09T02:51:40.158Z,32.00
2024-05-09T02:52:10.934Z,32.00
2024-05-09T02:52:41.713Z,31.00
2024-05-09T02:53:13.802Z,31.00
2024-05-09T02:53:45.033Z,31.00
2024-05-09T02:54:15.861Z,34.00
2024-05-09T02:54:46.617Z,41.00
2024-05-09T02:55:17.391Z,45.33
2024-05-09T02:55:48.275Z,45.67
2024-05-09T02:56:19.244Z,44.67
2024-05-09T02:56:50.068Z,43.67
2024-05-09T02:57:20.864Z,42.67
2024-05-09T02:57:51.624Z,42.00
2024-05-09T02:58:22.450Z,41.33
2024-05-09T02:58:53.293Z,41.00
2024-05-09T02:59:24.223Z,40.67
2024-05-09T02:59:55.053Z,40.00
2024-05-09T03:00:30.004Z,40.00
2024-05-09T03:01:08.487Z,40.00
2024-05-09T03:01:39.444Z,39.00
2024-05-09T03:02:10.442Z,39.00
2024-05-09T03:02:44.771Z,39.00
2024-05-09T03:03:16.015Z,39.00
2024-05-09T03:03:49.297Z,39.00
2024-05-09T03:04:20.187Z,39.00
2024-05-09T03:04:51.087Z,39.00
2024-05-09T03:05:22.134Z,39.00
2024-05-09T03:05:52.980Z,38.00
2024-05-09T03:06:23.791Z,38.00
2024-05-09T03:06:54.576Z,38.00
2024-05-09T03:07:25.435Z,38.00
2024-05-09T03:07:56.321Z,38.00
2024-05-09T03:08:27.423Z,38.00
2024-05-09T03:08:59.866Z,37.00
2024-05-09T03:09:30.662Z,37.00
2024-05-09T03:10:01.430Z,37.00
2024-05-09T03:10:35.835Z,37.00
2024-05-09T03:11:08.789Z,36.67
2024-05-09T03:11:39.859Z,36.00
2024-05-09T03:12:10.816Z,36.00
2024-05-09T03:12:41.767Z,36.00
2024-05-09T03:13:14.832Z,36.00
2024-05-09T03:13:46.773Z,36.00
2024-05-09T03:14:18.345Z,36.33
2024-05-09T03:14:49.711Z,37.33
2024-05-09T03:15:23.405Z,39.33
2024-05-09T03:15:54.222Z,40.67
2024-05-09T03:16:25.000Z,41.67
2024-05-09T03:16:55.865Z,42.67
2024-05-09T03:17:26.851Z,43.67
2024-05-09T03:17:58.939Z,44.67
2024-05-09T03:18:29.891Z,46.67
2024-05-09T03:19:00.825Z,48.33
2024-05-09T03:19:34.238Z,50.00
2024-05-09T03:20:11.509Z,53.00
2024-05-09T03:20:45.628Z,56.00
2024-05-09T03:21:16.579Z,57.67
2024-05-09T03:21:47.390Z,59.00
2024-05-09T03:22:18.166Z,61.67
2024-05-09T03:22:48.995Z,70.00
2024-05-09T03:23:19.832Z,74.00
2024-05-09T03:23:50.751Z,73.33
2024-05-09T03:24:21.613Z,72.33
2024-05-09T03:24:52.496Z,77.67
2024-05-09T03:25:23.331Z,82.00
2024-05-09T03:25:54.369Z,86.33
2024-05-09T03:26:25.764Z,85.67
2024-05-09T03:26:56.589Z,82.00
2024-05-09T03:27:27.557Z,79.00
2024-05-09T03:27:59.856Z,77.33
2024-05-09T03:28:30.655Z,75.33
2024-05-09T03:29:01.494Z,73.67
2024-05-09T03:29:32.553Z,72.67
2024-05-09T03:30:05.517Z,71.67
2024-05-09T03:30:41.840Z,70.00
2024-05-09T03:31:17.559Z,67.00
2024-05-09T03:31:48.365Z,63.33
2024-05-09T03:32:19.246Z,59.67
2024-05-09T03:32:50.253Z,55.67
2024-05-09T03:33:21.465Z,50.33
2024-05-09T03:33:52.921Z,46.00
2024-05-09T03:34:23.950Z,43.00
2024-05-09T03:34:54.779Z,41.00
2024-05-09T03:35:25.731Z,40.00
2024-05-09T03:35:56.588Z,38.67
2024-05-09T03:36:27.381Z,38.00
2024-05-09T03:36:58.180Z,38.67
2024-05-09T03:37:29.028Z,39.33
2024-05-09T03:37:59.832Z,40.00
2024-05-09T03:38:36.194Z,41.00
2024-05-09T03:39:09.870Z,41.33
2024-05-09T03:39:40.651Z,42.00
2024-05-09T03:40:20.709Z,42.00
2024-05-09T03:40:54.672Z,42.67
2024-05-09T03:41:25.511Z,48.33
2024-05-09T03:41:56.414Z,59.67
2024-05-09T03:42:27.271Z,65.67
2024-05-09T03:42:58.054Z,65.33
2024-05-09T03:43:28.819Z,63.67
2024-05-09T03:43:59.858Z,62.67
2024-05-09T03:44:30.787Z,62.00
2024-05-09T03:45:01.721Z,61.33
2024-05-09T03:45:32.491Z,60.33
2024-05-09T03:46:03.421Z,58.33
2024-05-09T03:46:40.485Z,56.33
2024-05-09T03:47:11.296Z,54.33
2024-05-09T03:47:42.517Z,54.00
2024-05-09T03:48:13.860Z,54.00
2024-05-09T03:48:44.970Z,54.00
2024-05-09T03:49:16.862Z,53.67
2024-05-09T03:49:47.765Z,53.00
2024-05-09T03:50:26.356Z,53.00
2024-05-09T03:51:04.440Z,53.00
2024-05-09T03:51:35.339Z,52.33
2024-05-09T03:52:06.162Z,51.33
2024-05-09T03:52:36.947Z,50.67
2024-05-09T03:53:11.970Z,49.67
2024-05-09T03:53:42.781Z,49.00
2024-05-09T03:54:13.568Z,49.00
2024-05-09T03:54:47.676Z,49.00
2024-05-09T03:55:18.794Z,49.00
2024-05-09T03:55:49.588Z,52.00
2024-05-09T03:56:20.471Z,64.00
2024-05-09T03:56:51.306Z,73.33
2024-05-09T03:57:22.144Z,76.00
2024-05-09T03:57:53.012Z,80.67
2024-05-09T03:58:23.788Z,84.33
2024-05-09T03:58:54.905Z,83.00
2024-05-09T03:59:25.926Z,80.67
2024-05-09T03:59:56.750Z,80.67
2024-05-09T04:00:35.225Z,81.00
2024-05-09T04:01:09.383Z,83.00
2024-05-09T04:01:40.282Z,85.67
2024-05-09T04:02:11.202Z,87.00
2024-05-09T04:02:42.564Z,89.00
2024-05-09T04:03:14.043Z,89.67
2024-05-09T04:03:45.291Z,91.33
2024-05-09T04:04:16.185Z,91.67
2024-05-09T04:04:47.054Z,91.67
2024-05-09T04:05:17.954Z,92.33
2024-05-09T04:05:48.815Z,89.00
2024-05-09T04:06:22.340Z,87.00
2024-05-09T04:06:53.122Z,85.00
2024-05-09T04:07:23.898Z,81.67
2024-05-09T04:07:54.791Z,77.33
2024-05-09T04:08:25.648Z,72.67
2024-05-09T04:08:56.435Z,70.00
2024-05-09T04:09:27.617Z,69.33
2024-05-09T04:09:58.420Z,68.67
2024-05-09T04:10:33.343Z,68.00
2024-05-09T04:11:06.058Z,68.00
2024-05-09T04:11:36.953Z,67.00
2024-05-09T04:12:07.958Z,66.00
2024-05-09T04:12:38.851Z,64.33
2024-05-09T04:13:09.843Z,63.00
2024-05-09T04:13:40.926Z,62.00
2024-05-09T04:14:11.892Z,61.00
2024-05-09T04:14:42.834Z,61.00
2024-05-09T04:15:14.122Z,67.00
2024-05-09T04:15:44.929Z,85.00
2024-05-09T04:16:15.772Z,88.00
2024-05-09T04:16:46.606Z,87.00
2024-05-09T04:17:17.474Z,84.33
2024-05-09T04:17:50.312Z,83.00
2024-05-09T04:18:21.278Z,82.00
2024-05-09T04:18:52.295Z,81.33
2024-05-09T04:19:23.449Z,80.67
2024-05-09T04:19:54.770Z,79.33
2024-05-09T04:20:36.001Z,77.67
2024-05-09T04:21:10.369Z,75.67
2024-05-09T04:21:41.258Z,75.00
2024-05-09T04:22:12.088Z,101.67
2024-05-09T04:22:42.907Z,173.00
2024-05-09T04:23:14.487Z,176.67
2024-05-09T04:23:45.646Z,157.67
2024-05-09T04:24:16.480Z,145.33
2024-05-09T04:24:47.595Z,134.33
2024-05-09T04:25:18.384Z,123.33
2024-05-09T04:25:49.263Z,118.67
2024-05-09T04:26:20.133Z,118.00
2024-05-09T04:26:50.965Z,122.00
2024-05-09T04:27:21.725Z,130.33
2024-05-09T04:27:54.693Z,129.00
2024-05-09T04:28:25.471Z,124.00
2024-05-09T04:28:56.269Z,120.00
2024-05-09T04:29:27.222Z,117.67
2024-05-09T04:29:58.089Z,116.00
2024-05-09T04:30:36.639Z,111.67
2024-05-09T04:31:10.461Z,100.33
2024-05-09T04:31:41.236Z,96.00
2024-05-09T04:32:12.191Z,95.00
2024-05-09T04:32:43.182Z,93.33
2024-05-09T04:33:14.961Z,90.67
2024-05-09T04:33:46.601Z,86.67
2024-05-09T04:34:18.000Z,84.33
2024-05-09T04:34:48.884Z,82.67
2024-05-09T04:35:21.372Z,81.00
2024-05-09T04:35:52.205Z,80.00
2024-05-09T04:36:23.048Z,80.00
2024-05-09T04:36:53.817Z,79.67
2024-05-09T04:37:25.230Z,78.67
2024-05-09T04:37:56.038Z,78.00
2024-05-09T04:38:28.895Z,78.00
2024-05-09T04:38:59.713Z,78.33
2024-05-09T04:39:30.519Z,79.67
2024-05-09T04:40:01.294Z,80.67
2024-05-09T04:40:35.384Z,81.33
2024-05-09T04:41:07.840Z,84.00
2024-05-09T04:41:38.772Z,87.67
2024-05-09T04:42:09.592Z,90.33
2024-05-09T04:42:40.684Z,91.33
2024-05-09T04:43:16.052Z,92.00
2024-05-09T04:43:49.709Z,92.00
2024-05-09T04:44:20.658Z,92.00
2024-05-09T04:44:54.126Z,92.00
2024-05-09T04:45:26.524Z,93.00
2024-05-09T04:45:57.295Z,96.33
2024-05-09T04:46:28.039Z,98.00
2024-05-09T04:46:58.975Z,98.00
2024-05-09T04:47:30.038Z,98.00
2024-05-09T04:48:01.664Z,98.00
2024-05-09T04:48:33.035Z,97.00
2024-05-09T04:49:04.028Z,96.33
2024-05-09T04:49:35.155Z,94.00
2024-05-09T04:50:08.831Z,92.00
2024-05-09T04:50:42.287Z,90.00
2024-05-09T04:51:13.363Z,88.67
2024-05-09T04:51:44.217Z,87.00
2024-05-09T04:52:14.994Z,83.67
2024-05-09T04:52:45.823Z,82.33
2024-05-09T04:53:17.072Z,83.33
2024-05-09T04:53:48.149Z,84.33
2024-05-09T04:54:30.011Z,85.67
2024-05-09T04:55:06.741Z,87.67
2024-05-09T04:55:37.856Z,90.67
2024-05-09T04:56:08.676Z,95.33
2024-05-09T04:56:39.580Z,98.67
2024-05-09T04:57:10.454Z,100.33
2024-05-09T04:57:41.243Z,102.00
2024-05-09T04:58:12.214Z,106.33
2024-05-09T04:58:43.123Z,114.67
2024-05-09T04:59:13.919Z,122.33
2024-05-09T04:59:44.778Z,128.00
2024-05-09T05:00:21.832Z,127.33
2024-05-09T05:00:59.512Z,120.33
2024-05-09T05:01:30.358Z,118.33
2024-05-09T05:02:01.378Z,123.00
2024-05-09T05:02:32.257Z,137.33
2024-05-09T05:03:12.609Z,141.00
2024-05-09T05:03:46.316Z,141.33
2024-05-09T05:04:17.403Z,140.67
2024-05-09T05:04:48.508Z,140.00
2024-05-09T05:05:19.354Z,137.00
2024-05-09T05:05:50.273Z,133.33
2024-05-09T05:06:21.272Z,130.67
2024-05-09T05:06:52.023Z,129.33
2024-05-09T05:07:22.802Z,128.33
2024-05-09T05:07:53.600Z,128.00
2024-05-09T05:08:24.400Z,129.33
2024-05-09T05:08:55.497Z,128.67
2024-05-09T05:09:26.261Z,128.00
2024-05-09T05:09:57.036Z,127.00
2024-05-09T05:10:33.665Z,125.67
2024-05-09T05:11:07.347Z,122.67
2024-05-09T05:11:38.273Z,115.33
2024-05-09T05:12:29.204Z,107.00
2024-05-09T05:13:15.628Z,98.00
2024-05-09T05:13:50.067Z,99.00
2024-05-09T05:14:20.997Z,101.33
2024-05-09T05:14:51.807Z,102.67
2024-05-09T05:15:22.682Z,103.33
2024-05-09T05:15:57.868Z,104.00
2024-05-09T05:16:29.275Z,105.00
2024-05-09T05:17:00.067Z,113.00
2024-05-09T05:17:31.166Z,122.00
2024-05-09T05:18:02.265Z,125.00
2024-05-09T05:18:33.260Z,124.33
2024-05-09T05:19:05.319Z,123.33
2024-05-09T05:19:38.146Z,122.00
2024-05-09T05:20:12.723Z,120.00
2024-05-09T05:20:46.051Z,117.67
2024-05-09T05:21:17.051Z,116.33
2024-05-09T05:21:47.825Z,115.33
2024-05-09T05:22:18.689Z,115.00
2024-05-09T05:22:49.567Z,115.00
2024-05-09T05:23:21.578Z,118.33
2024-05-09T05:23:52.542Z,126.00
2024-05-09T05:24:23.350Z,131.00
2024-05-09T05:24:54.105Z,132.67
2024-05-09T05:25:24.902Z,134.67
2024-05-09T05:25:55.997Z,134.00
2024-05-09T05:26:27.010Z,132.00
2024-05-09T05:26:57.828Z,130.67
2024-05-09T05:27:29.806Z,130.00
2024-05-09T05:28:00.686Z,129.33
2024-05-09T05:28:31.490Z,129.00
2024-05-09T05:29:02.312Z,128.33
2024-05-09T05:29:33.170Z,128.00
2024-05-09T05:30:07.381Z,128.00
2024-05-09T05:30:41.033Z,129.67
2024-05-09T05:31:13.615Z,131.00
2024-05-09T05:31:44.649Z,130.67
2024-05-09T05:32:15.838Z,130.00
2024-05-09T05:32:46.901Z,130.00
2024-05-09T05:33:17.915Z,130.00
2024-05-09T05:33:49.207Z,130.00
2024-05-09T05:34:20.091Z,130.00
2024-05-09T05:34:50.919Z,130.67
2024-05-09T05:35:21.898Z,132.00
2024-05-09T05:35:52.725Z,132.00
2024-05-09T05:36:23.583Z,132.00
2024-05-09T05:36:54.578Z,134.00
2024-05-09T05:37:25.345Z,149.00
2024-05-09T05:37:56.210Z,161.67
2024-05-09T05:38:28.395Z,165.67
2024-05-09T05:38:59.602Z,157.67
2024-05-09T05:39:30.489Z,152.33
2024-05-09T05:40:01.230Z,150.00
2024-05-09T05:40:36.612Z,150.67
2024-05-09T05:41:09.237Z,151.00
2024-05-09T05:41:40.061Z,151.00
2024-05-09T05:42:10.969Z,150.33
2024-05-09T05:42:42.021Z,149.33
2024-05-09T05:43:17.287Z,149.00
2024-05-09T05:43:48.115Z,151.67
2024-05-09T05:44:19.034Z,159.67
2024-05-09T05:44:50.007Z,163.33
2024-05-09T05:45:20.836Z,161.67
2024-05-09T05:45:51.615Z,159.00
2024-05-09T05:46:22.541Z,158.67
2024-05-09T05:46:53.391Z,160.67
2024-05-09T05:47:24.407Z,163.67
2024-05-09T05:47:55.902Z,179.67
2024-05-09T05:48:27.225Z,190.67
2024-05-09T05:48:58.158Z,190.33
2024-05-09T05:49:29.120Z,187.00
2024-05-09T05:49:59.933Z,184.33
2024-05-09T05:50:35.563Z,190.00
2024-05-09T05:51:08.437Z,188.67
2024-05-09T05:51:39.245Z,184.67
2024-05-09T05:52:11.238Z,180.00
2024-05-09T05:52:42.393Z,177.33
2024-05-09T05:53:13.484Z,174.00
2024-05-09T05:53:45.153Z,166.00
2024-05-09T05:54:15.933Z,158.00
2024-05-09T05:54:50.766Z,148.00
2024-05-09T05:55:21.730Z,141.33
2024-05-09T05:55:52.610Z,141.67
2024-05-09T05:56:25.059Z,142.00
2024-05-09T05:56:57.500Z,142.00
2024-05-09T05:57:28.396Z,142.67
2024-05-09T05:58:00.556Z,143.00
2024-05-09T05:58:31.382Z,143.00
2024-05-09T05:59:02.312Z,144.33
2024-05-09T05:59:33.397Z,154.67
2024-05-09T06:00:09.395Z,165.33
2024-05-09T06:00:41.620Z,163.67
2024-05-09T06:01:13.254Z,162.33
2024-05-09T06:01:44.311Z,161.33
2024-05-09T06:02:15.195Z,161.00
2024-05-09T06:02:46.212Z,161.00
2024-05-09T06:03:17.178Z,161.00
2024-05-09T06:03:48.123Z,161.00
2024-05-09T06:04:18.982Z,161.00
2024-05-09T06:04:49.896Z,160.33
2024-05-09T06:05:20.762Z,160.33
2024-05-09T06:05:51.589Z,160.67
2024-05-09T06:06:22.437Z,159.67
2024-05-09T06:06:53.264Z,155.67
2024-05-09T06:07:24.059Z,151.00
2024-05-09T06:07:54.948Z,147.00
2024-05-09T06:08:28.874Z,143.00
2024-05-09T06:09:00.859Z,143.67
2024-05-09T06:09:32.452Z,145.33
2024-05-09T06:10:05.252Z,148.00
2024-05-09T06:10:40.187Z,149.67
2024-05-09T06:11:12.205Z,150.00
2024-05-09T06:11:43.145Z,150.00
2024-05-09T06:12:14.131Z,149.33
2024-05-09T06:12:45.007Z,149.00
2024-05-09T06:13:17.155Z,149.33
2024-05-09T06:13:48.013Z,150.00
2024-05-09T06:14:18.932Z,150.00
2024-05-09T06:14:49.766Z,150.00
2024-05-09T06:15:20.539Z,150.00
2024-05-09T06:15:51.346Z,151.33
2024-05-09T06:16:22.282Z,154.00
2024-05-09T06:16:55.938Z,157.00
2024-05-09T06:17:28.498Z,163.00
2024-05-09T06:17:59.749Z,168.00
2024-05-09T06:18:30.819Z,173.33
2024-05-09T06:19:01.797Z,176.00
2024-05-09T06:19:32.776Z,175.67
2024-05-09T06:20:04.674Z,175.00
2024-05-09T06:20:38.785Z,174.67
2024-05-09T06:21:09.636Z,173.33
2024-05-09T06:21:40.496Z,172.33
2024-05-09T06:22:11.339Z,172.00
2024-05-09T06:22:42.114Z,173.33
2024-05-09T06:23:13.450Z,177.67
2024-05-09T06:23:48.259Z,187.33
2024-05-09T06:24:19.178Z,198.00
2024-05-09T06:24:50.054Z,203.67
2024-05-09T06:25:20.819Z,206.67
2024-05-09T06:25:51.810Z,209.33
2024-05-09T06:26:23.235Z,211.67
2024-05-09T06:26:54.099Z,213.00
2024-05-09T06:27:24.875Z,222.67
2024-05-09T06:27:55.763Z,228.00
2024-05-09T06:28:26.569Z,220.67
2024-05-09T06:28:59.472Z,222.33
2024-05-09T06:29:30.572Z,240.33
2024-05-09T06:30:01.392Z,246.67
2024-05-09T06:30:39.782Z,242.00
2024-05-09T06:31:12.587Z,232.00
2024-05-09T06:31:43.467Z,228.00
2024-05-09T06:32:15.191Z,225.67
2024-05-09T06:32:46.225Z,220.33
2024-05-09T06:33:17.360Z,218.00
2024-05-09T06:33:48.732Z,216.33
2024-05-09T06:34:19.768Z,215.67
2024-05-09T06:34:50.706Z,216.00
2024-05-09T06:35:21.566Z,216.33
2024-05-09T06:35:58.080Z,214.67
2024-05-09T06:36:28.847Z,213.00
2024-05-09T06:36:59.614Z,208.00
2024-05-09T06:37:30.428Z,203.67
2024-05-09T06:38:01.620Z,203.00
2024-05-09T06:38:32.684Z,203.67
2024-05-09T06:39:04.393Z,204.00
2024-05-09T06:39:35.146Z,204.00
2024-05-09T06:40:07.485Z,204.00
2024-05-09T06:40:41.139Z,201.33
2024-05-09T06:41:13.911Z,192.67
2024-05-09T06:41:44.862Z,192.00
2024-05-09T06:42:15.697Z,194.33
2024-05-09T06:42:46.728Z,211.00
2024-05-09T06:43:19.345Z,233.67
2024-05-09T06:43:50.886Z,251.67
2024-05-09T06:44:22.195Z,263.00
2024-05-09T06:44:53.021Z,267.00
2024-05-09T06:45:23.784Z,261.33